sensor_id;sensor_type;location;lat;lon;timestamp;temperature;humidity
11639;DHT22;5875;35.940;126.892;2023-02-08T00:00:53;3.90;99.90
11639;DHT22;5875;35.940;126.892;2023-02-08T00:03:20;3.90;99.90
11639;DHT22;5875;35.940;126.892;2023-02-08T00:05:48;4.00;99.90
11639;DHT22;5875;35.940;126.892;2023-02-08T00:08:15;4.00;99.90
11639;DHT22;5875;35.940;126.892;2023-02-08T00:10:43;4.10;99.90
11639;DHT22;5875;35.940;126.892;2023-02-08T00:13:10;4.10;99.90
11639;DHT22;5875;35.940;126.892;2023-02-08T00:15:42;4.10;99.90
11639;DHT22;5875;35.940;126.892;2023-02-08T00:18:10;4.20;99.90
11639;DHT22;5875;35.940;126.892;2023-02-08T00:20:41;4.20;99.90
11639;DHT22;5875;35.940;126.892;2023-02-08T00:23:09;4.30;99.90
11639;DHT22;5875;35.940;126.892;2023-02-08T00:25:36;4.30;99.90
11639;DHT22;5875;35.940;126.892;2023-02-08T00:28:05;4.30;99.90
11639;DHT22;5875;35.940;126.892;2023-02-08T00:30:32;4.40;99.90
11639;DHT22;5875;35.940;126.892;2023-02-08T00:33:01;4.40;99.90
11639;DHT22;5875;35.940;126.892;2023-02-08T00:35:29;4.40;99.90
11639;DHT22;5875;35.940;126.892;2023-02-08T00:37:56;4.50;99.90
11639;DHT22;5875;35.940;126.892;2023-02-08T00:40:24;4.60;99.90
11639;DHT22;5875;35.940;126.892;2023-02-08T00:42:52;4.60;99.90
11639;DHT22;5875;35.940;126.892;2023-02-08T00:45:19;4.60;99.90
11639;DHT22;5875;35.940;126.892;2023-02-08T00:47:46;4.60;99.90
11639;DHT22;5875;35.940;126.892;2023-02-08T00:50:13;4.60;99.90
11639;DHT22;5875;35.940;126.892;2023-02-08T00:52:40;4.70;99.90
11639;DHT22;5875;35.940;126.892;2023-02-08T00:55:08;4.70;99.90
11639;DHT22;5875;35.940;126.892;2023-02-08T00:57:35;4.30;99.90
11639;DHT22;5875;35.940;126.892;2023-02-08T01:00:04;4.60;99.90
11639;DHT22;5875;35.940;126.892;2023-02-08T01:02:32;4.70;99.90
11639;DHT22;5875;35.940;126.892;2023-02-08T01:04:59;4.40;99.90
11639;DHT22;5875;35.940;126.892;2023-02-08T01:07:26;4.20;99.90
11639;DHT22;5875;35.940;126.892;2023-02-08T01:09:53;4.30;99.90
11639;DHT22;5875;35.940;126.892;2023-02-08T01:12:20;4.50;99.90
11639;DHT22;5875;35.940;126.892;2023-02-08T01:14:48;4.60;99.90
11639;DHT22;5875;35.940;126.892;2023-02-08T01:17:15;4.60;99.90
11639;DHT22;5875;35.940;126.892;2023-02-08T01:19:42;4.70;99.90
11639;DHT22;5875;35.940;126.892;2023-02-08T01:22:09;4.80;99.90
11639;DHT22;5875;35.940;126.892;2023-02-08T01:24:36;4.50;99.90
11639;DHT22;5875;35.940;126.892;2023-02-08T01:27:03;4.50;99.90
11639;DHT22;5875;35.940;126.892;2023-02-08T01:29:30;4.70;99.90
11639;DHT22;5875;35.940;126.892;2023-02-08T01:31:57;4.80;99.90
11639;DHT22;5875;35.940;126.892;2023-02-08T01:34:25;4.90;99.90
11639;DHT22;5875;35.940;126.892;2023-02-08T01:36:52;5.00;99.90
11639;DHT22;5875;35.940;126.892;2023-02-08T01:39:19;5.10;99.90
11639;DHT22;5875;35.940;126.892;2023-02-08T01:41:46;5.20;99.90
11639;DHT22;5875;35.940;126.892;2023-02-08T01:46:45;5.40;99.90
11639;DHT22;5875;35.940;126.892;2023-02-08T01:49:31;5.50;99.90
11639;DHT22;5875;35.940;126.892;2023-02-08T01:52:16;5.70;99.90
11639;DHT22;5875;35.940;126.892;2023-02-08T01:54:52;5.90;99.90
11639;DHT22;5875;35.940;126.892;2023-02-08T01:57:22;6.00;99.90
11639;DHT22;5875;35.940;126.892;2023-02-08T01:59:59;6.00;99.90
11639;DHT22;5875;35.940;126.892;2023-02-08T02:02:27;6.10;99.90
11639;DHT22;5875;35.940;126.892;2023-02-08T02:04:55;6.10;99.90
11639;DHT22;5875;35.940;126.892;2023-02-08T02:07:27;6.20;99.90
11639;DHT22;5875;35.940;126.892;2023-02-08T02:10:13;6.20;99.90
11639;DHT22;5875;35.940;126.892;2023-02-08T02:12:42;6.30;99.90
11639;DHT22;5875;35.940;126.892;2023-02-08T02:15:11;6.40;99.90
11639;DHT22;5875;35.940;126.892;2023-02-08T02:17:38;6.30;99.90
11639;DHT22;5875;35.940;126.892;2023-02-08T02:20:31;6.40;99.90
11639;DHT22;5875;35.940;126.892;2023-02-08T02:34:33;6.10;99.90
11639;DHT22;5875;35.940;126.892;2023-02-08T02:42:54;6.30;99.90
11639;DHT22;5875;35.940;126.892;2023-02-08T02:54:22;7.70;99.90
11639;DHT22;5875;35.940;126.892;2023-02-08T02:56:57;8.00;99.90
11639;DHT22;5875;35.940;126.892;2023-02-08T02:59:26;8.30;99.90
11639;DHT22;5875;35.940;126.892;2023-02-08T03:01:58;8.60;99.90
11639;DHT22;5875;35.940;126.892;2023-02-08T03:20:27;11.10;99.90
11639;DHT22;5875;35.940;126.892;2023-02-08T03:25:46;12.30;99.90
11639;DHT22;5875;35.940;126.892;2023-02-08T03:31:14;13.10;99.90
11639;DHT22;5875;35.940;126.892;2023-02-08T03:33:52;13.30;99.90
11639;DHT22;5875;35.940;126.892;2023-02-08T03:39:09;13.60;99.90
11639;DHT22;5875;35.940;126.892;2023-02-08T03:41:40;13.80;99.90
11639;DHT22;5875;35.940;126.892;2023-02-08T03:44:25;13.90;98.00
11639;DHT22;5875;35.940;126.892;2023-02-08T03:47:22;13.50;93.40
11639;DHT22;5875;35.940;126.892;2023-02-08T03:49:50;13.60;88.10
11639;DHT22;5875;35.940;126.892;2023-02-08T03:52:18;14.00;94.60
11639;DHT22;5875;35.940;126.892;2023-02-08T03:54:54;14.40;98.60
11639;DHT22;5875;35.940;126.892;2023-02-08T03:57:51;14.60;93.50
11639;DHT22;5875;35.940;126.892;2023-02-08T04:00:17;14.70;94.20
11639;DHT22;5875;35.940;126.892;2023-02-08T04:03:07;14.70;87.80
11639;DHT22;5875;35.940;126.892;2023-02-08T04:05:36;15.00;89.70
11639;DHT22;5875;35.940;126.892;2023-02-08T04:08:04;15.20;90.50
11639;DHT22;5875;35.940;126.892;2023-02-08T04:10:31;15.30;83.00
11639;DHT22;5875;35.940;126.892;2023-02-08T04:12:58;15.30;80.50
11639;DHT22;5875;35.940;126.892;2023-02-08T04:15:25;15.20;65.60
11639;DHT22;5875;35.940;126.892;2023-02-08T04:17:53;15.20;77.50
11639;DHT22;5875;35.940;126.892;2023-02-08T04:20:20;15.50;84.70
11639;DHT22;5875;35.940;126.892;2023-02-08T04:22:47;15.70;90.70
11639;DHT22;5875;35.940;126.892;2023-02-08T04:25:15;15.60;62.50
11639;DHT22;5875;35.940;126.892;2023-02-08T04:27:42;15.80;88.30
11639;DHT22;5875;35.940;126.892;2023-02-08T04:30:10;16.00;91.10
11639;DHT22;5875;35.940;126.892;2023-02-08T04:32:38;15.70;61.30
11639;DHT22;5875;35.940;126.892;2023-02-08T04:35:05;16.00;82.20
11639;DHT22;5875;35.940;126.892;2023-02-08T04:37:32;16.10;83.60
11639;DHT22;5875;35.940;126.892;2023-02-08T04:40:00;16.10;78.40
11639;DHT22;5875;35.940;126.892;2023-02-08T04:42:27;16.30;87.40
11639;DHT22;5875;35.940;126.892;2023-02-08T04:44:54;16.00;61.20
11639;DHT22;5875;35.940;126.892;2023-02-08T04:47:21;16.10;78.40
11639;DHT22;5875;35.940;126.892;2023-02-08T04:49:48;16.30;83.70
11639;DHT22;5875;35.940;126.892;2023-02-08T04:52:16;16.40;87.10
11639;DHT22;5875;35.940;126.892;2023-02-08T04:54:43;16.50;84.80
11639;DHT22;5875;35.940;126.892;2023-02-08T04:57:13;16.60;84.10
11639;DHT22;5875;35.940;126.892;2023-02-08T04:59:40;16.60;84.80
11639;DHT22;5875;35.940;126.892;2023-02-08T05:02:07;16.60;80.90
11639;DHT22;5875;35.940;126.892;2023-02-08T05:04:35;16.60;82.30
11639;DHT22;5875;35.940;126.892;2023-02-08T05:07:02;16.70;81.80
11639;DHT22;5875;35.940;126.892;2023-02-08T05:09:30;16.80;81.20
11639;DHT22;5875;35.940;126.892;2023-02-08T05:11:57;16.70;78.40
11639;DHT22;5875;35.940;126.892;2023-02-08T05:14:24;16.80;80.00
11639;DHT22;5875;35.940;126.892;2023-02-08T05:16:51;16.70;58.10
11639;DHT22;5875;35.940;126.892;2023-02-08T05:19:18;16.70;77.50
11639;DHT22;5875;35.940;126.892;2023-02-08T05:21:45;16.70;75.50
11639;DHT22;5875;35.940;126.892;2023-02-08T05:24:13;16.70;61.40
11639;DHT22;5875;35.940;126.892;2023-02-08T05:26:40;16.60;72.30
11639;DHT22;5875;35.940;126.892;2023-02-08T05:29:07;16.60;72.90
11639;DHT22;5875;35.940;126.892;2023-02-08T05:31:35;16.70;71.10
11639;DHT22;5875;35.940;126.892;2023-02-08T05:34:02;16.70;70.30
11639;DHT22;5875;35.940;126.892;2023-02-08T05:36:29;16.60;69.60
11639;DHT22;5875;35.940;126.892;2023-02-08T05:38:57;16.60;67.70
11639;DHT22;5875;35.940;126.892;2023-02-08T05:41:24;16.60;70.00
11639;DHT22;5875;35.940;126.892;2023-02-08T05:43:51;16.60;68.40
11639;DHT22;5875;35.940;126.892;2023-02-08T05:46:18;16.70;67.30
11639;DHT22;5875;35.940;126.892;2023-02-08T05:48:45;16.70;66.20
11639;DHT22;5875;35.940;126.892;2023-02-08T05:51:12;16.60;66.90
11639;DHT22;5875;35.940;126.892;2023-02-08T05:53:40;16.70;66.20
11639;DHT22;5875;35.940;126.892;2023-02-08T05:56:08;16.40;58.60
11639;DHT22;5875;35.940;126.892;2023-02-08T05:58:35;16.60;66.30
11639;DHT22;5875;35.940;126.892;2023-02-08T06:01:08;16.60;62.90
11639;DHT22;5875;35.940;126.892;2023-02-08T06:03:36;16.70;64.30
11639;DHT22;5875;35.940;126.892;2023-02-08T06:06:04;16.50;65.30
11639;DHT22;5875;35.940;126.892;2023-02-08T06:08:31;16.40;61.40
11639;DHT22;5875;35.940;126.892;2023-02-08T06:10:58;16.40;60.30
11639;DHT22;5875;35.940;126.892;2023-02-08T06:13:26;16.50;68.20
11639;DHT22;5875;35.940;126.892;2023-02-08T06:15:55;16.40;67.10
11639;DHT22;5875;35.940;126.892;2023-02-08T06:18:22;16.50;67.20
11639;DHT22;5875;35.940;126.892;2023-02-08T06:20:52;16.40;65.60
11639;DHT22;5875;35.940;126.892;2023-02-08T06:23:20;16.60;66.20
11639;DHT22;5875;35.940;126.892;2023-02-08T06:25:48;16.50;67.40
11639;DHT22;5875;35.940;126.892;2023-02-08T06:28:15;16.60;68.10
11639;DHT22;5875;35.940;126.892;2023-02-08T06:30:42;16.60;69.20
11639;DHT22;5875;35.940;126.892;2023-02-08T06:33:10;16.60;65.80
11639;DHT22;5875;35.940;126.892;2023-02-08T06:35:37;16.60;68.80
11639;DHT22;5875;35.940;126.892;2023-02-08T06:38:04;16.60;71.00
11639;DHT22;5875;35.940;126.892;2023-02-08T06:40:31;16.60;68.80
11639;DHT22;5875;35.940;126.892;2023-02-08T06:42:58;16.50;72.40
11639;DHT22;5875;35.940;126.892;2023-02-08T06:45:25;16.40;73.10
11639;DHT22;5875;35.940;126.892;2023-02-08T06:47:52;16.40;75.80
11639;DHT22;5875;35.940;126.892;2023-02-08T06:50:19;16.30;75.20
11639;DHT22;5875;35.940;126.892;2023-02-08T06:52:47;16.20;77.40
11639;DHT22;5875;35.940;126.892;2023-02-08T06:55:14;16.20;80.20
11639;DHT22;5875;35.940;126.892;2023-02-08T06:57:41;16.10;79.60
11639;DHT22;5875;35.940;126.892;2023-02-08T07:00:09;16.20;78.70
11639;DHT22;5875;35.940;126.892;2023-02-08T07:02:36;16.20;74.90
11639;DHT22;5875;35.940;126.892;2023-02-08T07:05:03;16.10;74.80
11639;DHT22;5875;35.940;126.892;2023-02-08T07:07:31;16.10;77.30
11639;DHT22;5875;35.940;126.892;2023-02-08T07:09:58;16.00;72.90
11639;DHT22;5875;35.940;126.892;2023-02-08T07:12:26;16.00;78.70
11639;DHT22;5875;35.940;126.892;2023-02-08T07:14:53;15.90;59.00
11639;DHT22;5875;35.940;126.892;2023-02-08T07:17:20;15.70;57.20
11639;DHT22;5875;35.940;126.892;2023-02-08T07:19:47;15.60;60.30
11639;DHT22;5875;35.940;126.892;2023-02-08T07:22:14;15.30;56.30
11639;DHT22;5875;35.940;126.892;2023-02-08T07:24:42;15.50;81.50
11639;DHT22;5875;35.940;126.892;2023-02-08T07:27:11;15.30;71.10
11639;DHT22;5875;35.940;126.892;2023-02-08T07:29:38;15.50;81.70
11639;DHT22;5875;35.940;126.892;2023-02-08T07:32:07;15.50;76.20
11639;DHT22;5875;35.940;126.892;2023-02-08T07:34:35;15.30;75.90
11639;DHT22;5875;35.940;126.892;2023-02-08T07:37:04;15.20;73.60
11639;DHT22;5875;35.940;126.892;2023-02-08T07:39:31;15.00;70.50
11639;DHT22;5875;35.940;126.892;2023-02-08T07:44:25;15.10;73.90
11639;DHT22;5875;35.940;126.892;2023-02-08T07:46:53;15.10;72.60
11639;DHT22;5875;35.940;126.892;2023-02-08T07:49:20;15.10;71.20
11639;DHT22;5875;35.940;126.892;2023-02-08T07:51:47;15.00;69.40
11639;DHT22;5875;35.940;126.892;2023-02-08T07:54:14;15.00;68.30
11639;DHT22;5875;35.940;126.892;2023-02-08T07:56:41;14.90;67.30
11639;DHT22;5875;35.940;126.892;2023-02-08T07:59:10;14.80;62.50
11639;DHT22;5875;35.940;126.892;2023-02-08T08:01:37;14.70;65.80
11639;DHT22;5875;35.940;126.892;2023-02-08T08:04:04;14.60;64.60
11639;DHT22;5875;35.940;126.892;2023-02-08T08:06:32;14.50;61.00
11639;DHT22;5875;35.940;126.892;2023-02-08T08:08:59;14.40;63.10
11639;DHT22;5875;35.940;126.892;2023-02-08T08:11:26;14.30;61.30
11639;DHT22;5875;35.940;126.892;2023-02-08T08:13:54;14.20;60.30
11639;DHT22;5875;35.940;126.892;2023-02-08T08:16:21;14.00;57.80
11639;DHT22;5875;35.940;126.892;2023-02-08T08:18:48;13.90;58.00
11639;DHT22;5875;35.940;126.892;2023-02-08T08:21:16;13.80;57.60
11639;DHT22;5875;35.940;126.892;2023-02-08T08:23:43;13.60;56.60
11639;DHT22;5875;35.940;126.892;2023-02-08T08:26:17;13.60;57.10
11639;DHT22;5875;35.940;126.892;2023-02-08T08:28:45;13.50;55.90
11639;DHT22;5875;35.940;126.892;2023-02-08T08:31:15;13.30;55.40
11639;DHT22;5875;35.940;126.892;2023-02-08T08:33:43;13.10;54.70
11639;DHT22;5875;35.940;126.892;2023-02-08T08:36:10;12.90;54.30
11639;DHT22;5875;35.940;126.892;2023-02-08T08:38:37;12.70;55.60
11639;DHT22;5875;35.940;126.892;2023-02-08T08:41:13;12.60;55.90
11639;DHT22;5875;35.940;126.892;2023-02-08T08:43:42;12.40;56.50
11639;DHT22;5875;35.940;126.892;2023-02-08T08:46:10;12.30;54.00
11639;DHT22;5875;35.940;126.892;2023-02-08T08:48:37;12.10;58.00
11639;DHT22;5875;35.940;126.892;2023-02-08T08:51:05;12.00;58.10
11639;DHT22;5875;35.940;126.892;2023-02-08T08:53:33;11.80;58.70
11639;DHT22;5875;35.940;126.892;2023-02-08T08:56:00;11.70;58.20
11639;DHT22;5875;35.940;126.892;2023-02-08T08:58:28;11.60;59.20
11639;DHT22;5875;35.940;126.892;2023-02-08T09:00:59;11.50;60.40
11639;DHT22;5875;35.940;126.892;2023-02-08T09:03:26;11.30;61.30
11639;DHT22;5875;35.940;126.892;2023-02-08T09:05:54;11.20;64.10
11639;DHT22;5875;35.940;126.892;2023-02-08T09:08:21;11.10;58.20
11639;DHT22;5875;35.940;126.892;2023-02-08T09:10:48;11.00;66.00
11639;DHT22;5875;35.940;126.892;2023-02-08T09:13:15;11.00;61.90
11639;DHT22;5875;35.940;126.892;2023-02-08T09:15:45;10.80;65.40
11639;DHT22;5875;35.940;126.892;2023-02-08T09:18:12;10.70;67.90
11639;DHT22;5875;35.940;126.892;2023-02-08T09:20:40;10.70;67.40
11639;DHT22;5875;35.940;126.892;2023-02-08T09:23:07;10.60;69.00
11639;DHT22;5875;35.940;126.892;2023-02-08T09:25:36;10.40;68.40
11639;DHT22;5875;35.940;126.892;2023-02-08T09:28:03;10.30;69.10
11639;DHT22;5875;35.940;126.892;2023-02-08T09:30:31;10.20;67.50
11639;DHT22;5875;35.940;126.892;2023-02-08T09:32:58;10.10;66.90
11639;DHT22;5875;35.940;126.892;2023-02-08T09:35:26;10.00;66.80
11639;DHT22;5875;35.940;126.892;2023-02-08T09:37:56;9.90;67.20
11639;DHT22;5875;35.940;126.892;2023-02-08T09:40:40;9.90;66.40
11639;DHT22;5875;35.940;126.892;2023-02-08T09:43:21;9.80;65.30
11639;DHT22;5875;35.940;126.892;2023-02-08T09:48:38;9.60;64.80
11639;DHT22;5875;35.940;126.892;2023-02-08T09:51:17;9.50;65.90
11639;DHT22;5875;35.940;126.892;2023-02-08T09:53:50;9.50;64.90
11639;DHT22;5875;35.940;126.892;2023-02-08T09:56:24;9.40;65.40
11639;DHT22;5875;35.940;126.892;2023-02-08T09:58:52;9.30;67.00
11639;DHT22;5875;35.940;126.892;2023-02-08T10:01:29;9.30;66.60
11639;DHT22;5875;35.940;126.892;2023-02-08T10:04:21;9.20;67.40
11639;DHT22;5875;35.940;126.892;2023-02-08T10:06:50;9.20;66.60
11639;DHT22;5875;35.940;126.892;2023-02-08T10:09:21;9.10;67.00
11639;DHT22;5875;35.940;126.892;2023-02-08T10:23:46;8.80;69.80
11639;DHT22;5875;35.940;126.892;2023-02-08T10:36:16;8.50;70.40
11639;DHT22;5875;35.940;126.892;2023-02-08T10:38:44;8.50;72.70
11639;DHT22;5875;35.940;126.892;2023-02-08T10:41:19;8.40;74.70
11639;DHT22;5875;35.940;126.892;2023-02-08T10:50:06;8.20;75.90
11639;DHT22;5875;35.940;126.892;2023-02-08T10:52:40;8.10;75.80
11639;DHT22;5875;35.940;126.892;2023-02-08T10:55:26;8.00;77.30
11639;DHT22;5875;35.940;126.892;2023-02-08T10:58:00;8.00;79.80
11639;DHT22;5875;35.940;126.892;2023-02-08T11:00:33;8.00;80.30
11639;DHT22;5875;35.940;126.892;2023-02-08T11:05:50;7.80;82.10
11639;DHT22;5875;35.940;126.892;2023-02-08T11:08:23;7.80;82.60
11639;DHT22;5875;35.940;126.892;2023-02-08T11:11:03;7.70;82.00
11639;DHT22;5875;35.940;126.892;2023-02-08T11:16:10;7.60;82.20
11639;DHT22;5875;35.940;126.892;2023-02-08T11:18:57;7.60;82.80
11639;DHT22;5875;35.940;126.892;2023-02-08T11:21:31;7.50;82.00
11639;DHT22;5875;35.940;126.892;2023-02-08T11:24:15;7.40;83.40
11639;DHT22;5875;35.940;126.892;2023-02-08T11:26:43;7.40;87.30
11639;DHT22;5875;35.940;126.892;2023-02-08T11:29:25;7.50;91.10
11639;DHT22;5875;35.940;126.892;2023-02-08T11:34:36;7.60;68.90
11639;DHT22;5875;35.940;126.892;2023-02-08T11:37:20;7.50;76.40
11639;DHT22;5875;35.940;126.892;2023-02-08T11:40:00;6.70;49.60
11639;DHT22;5875;35.940;126.892;2023-02-08T11:42:34;6.40;54.40
11639;DHT22;5875;35.940;126.892;2023-02-08T11:45:03;6.50;59.10
11639;DHT22;5875;35.940;126.892;2023-02-08T11:47:33;6.50;78.70
11639;DHT22;5875;35.940;126.892;2023-02-08T11:50:03;6.50;88.90
11639;DHT22;5875;35.940;126.892;2023-02-08T11:52:41;6.50;93.00
11639;DHT22;5875;35.940;126.892;2023-02-08T11:58:03;6.40;94.70
11639;DHT22;5875;35.940;126.892;2023-02-08T12:00:35;6.40;95.50
11639;DHT22;5875;35.940;126.892;2023-02-08T12:03:27;6.40;94.80
11639;DHT22;5875;35.940;126.892;2023-02-08T12:06:24;6.40;95.00
11639;DHT22;5875;35.940;126.892;2023-02-08T12:11:45;6.30;95.60
11639;DHT22;5875;35.940;126.892;2023-02-08T12:22:07;6.30;96.00
11639;DHT22;5875;35.940;126.892;2023-02-08T12:24:44;6.40;95.70
11639;DHT22;5875;35.940;126.892;2023-02-08T12:35:54;6.20;85.10
11639;DHT22;5875;35.940;126.892;2023-02-08T12:41:38;6.00;93.80
11639;DHT22;5875;35.940;126.892;2023-02-08T12:47:29;6.10;79.90
11639;DHT22;5875;35.940;126.892;2023-02-08T12:50:20;6.10;71.80
11639;DHT22;5875;35.940;126.892;2023-02-08T12:52:59;5.90;69.10
11639;DHT22;5875;35.940;126.892;2023-02-08T12:55:35;5.80;81.90
11639;DHT22;5875;35.940;126.892;2023-02-08T13:00:46;5.80;91.90
11639;DHT22;5875;35.940;126.892;2023-02-08T13:05:51;5.70;92.50
11639;DHT22;5875;35.940;126.892;2023-02-08T13:11:20;5.60;95.60
11639;DHT22;5875;35.940;126.892;2023-02-08T13:14:03;5.60;96.00
11639;DHT22;5875;35.940;126.892;2023-02-08T13:16:37;5.60;97.80
11639;DHT22;5875;35.940;126.892;2023-02-08T13:19:10;5.50;96.60
11639;DHT22;5875;35.940;126.892;2023-02-08T13:21:41;5.50;95.90
11639;DHT22;5875;35.940;126.892;2023-02-08T13:24:38;5.40;86.80
11639;DHT22;5875;35.940;126.892;2023-02-08T13:27:05;5.20;83.20
11639;DHT22;5875;35.940;126.892;2023-02-08T13:29:37;5.40;79.10
11639;DHT22;5875;35.940;126.892;2023-02-08T13:34:53;5.30;96.00
11639;DHT22;5875;35.940;126.892;2023-02-08T13:37:32;5.20;96.40
11639;DHT22;5875;35.940;126.892;2023-02-08T13:40:26;5.20;96.70
11639;DHT22;5875;35.940;126.892;2023-02-08T13:45:35;5.10;98.10
11639;DHT22;5875;35.940;126.892;2023-02-08T13:48:09;5.10;92.90
11639;DHT22;5875;35.940;126.892;2023-02-08T13:50:47;5.10;96.00
11639;DHT22;5875;35.940;126.892;2023-02-08T13:53:16;5.00;98.10
11639;DHT22;5875;35.940;126.892;2023-02-08T13:55:51;4.90;97.30
11639;DHT22;5875;35.940;126.892;2023-02-08T13:58:35;4.90;97.10
11639;DHT22;5875;35.940;126.892;2023-02-08T14:03:42;4.80;99.30
11639;DHT22;5875;35.940;126.892;2023-02-08T14:06:25;4.80;99.70
11639;DHT22;5875;35.940;126.892;2023-02-08T14:17:07;4.70;98.90
11639;DHT22;5875;35.940;126.892;2023-02-08T14:19:38;4.60;99.60
11639;DHT22;5875;35.940;126.892;2023-02-08T14:22:18;4.60;98.80
11639;DHT22;5875;35.940;126.892;2023-02-08T14:25:37;4.50;98.60
11639;DHT22;5875;35.940;126.892;2023-02-08T14:27:41;4.60;98.00
11639;DHT22;5875;35.940;126.892;2023-02-08T14:33:07;4.60;99.90
11639;DHT22;5875;35.940;126.892;2023-02-08T14:36:40;4.50;99.70
11639;DHT22;5875;35.940;126.892;2023-02-08T14:42:09;4.40;99.60
11639;DHT22;5875;35.940;126.892;2023-02-08T14:52:45;4.40;99.90
11639;DHT22;5875;35.940;126.892;2023-02-08T14:55:18;4.40;99.80
11639;DHT22;5875;35.940;126.892;2023-02-08T14:57:57;4.40;99.90
11639;DHT22;5875;35.940;126.892;2023-02-08T15:00:43;4.30;99.90
11639;DHT22;5875;35.940;126.892;2023-02-08T15:03:13;4.40;99.90
11639;DHT22;5875;35.940;126.892;2023-02-08T15:08:41;4.30;99.90
11639;DHT22;5875;35.940;126.892;2023-02-08T15:11:28;4.30;99.40
11639;DHT22;5875;35.940;126.892;2023-02-08T15:13:59;4.30;99.90
11639;DHT22;5875;35.940;126.892;2023-02-08T15:16:39;4.30;99.90
11639;DHT22;5875;35.940;126.892;2023-02-08T15:19:08;4.30;99.90
11639;DHT22;5875;35.940;126.892;2023-02-08T15:21:35;4.30;99.90
11639;DHT22;5875;35.940;126.892;2023-02-08T15:24:21;4.30;99.60
11639;DHT22;5875;35.940;126.892;2023-02-08T15:26:54;4.20;99.80
11639;DHT22;5875;35.940;126.892;2023-02-08T15:29:30;4.20;99.30
11639;DHT22;5875;35.940;126.892;2023-02-08T15:31:57;4.20;99.90
11639;DHT22;5875;35.940;126.892;2023-02-08T15:34:25;4.20;99.90
11639;DHT22;5875;35.940;126.892;2023-02-08T15:36:54;4.20;99.30
11639;DHT22;5875;35.940;126.892;2023-02-08T15:39:36;4.10;99.00
11639;DHT22;5875;35.940;126.892;2023-02-08T15:42:14;4.10;99.40
11639;DHT22;5875;35.940;126.892;2023-02-08T15:44:42;4.10;99.20
11639;DHT22;5875;35.940;126.892;2023-02-08T15:47:21;4.10;99.30
11639;DHT22;5875;35.940;126.892;2023-02-08T15:49:50;4.00;99.30
11639;DHT22;5875;35.940;126.892;2023-02-08T15:52:25;4.00;99.60
11639;DHT22;5875;35.940;126.892;2023-02-08T15:54:53;4.00;99.90
11639;DHT22;5875;35.940;126.892;2023-02-08T16:00:03;3.90;99.80
11639;DHT22;5875;35.940;126.892;2023-02-08T16:02:34;4.00;98.50
11639;DHT22;5875;35.940;126.892;2023-02-08T16:05:14;4.00;99.40
11639;DHT22;5875;35.940;126.892;2023-02-08T16:07:46;4.00;99.70
11639;DHT22;5875;35.940;126.892;2023-02-08T16:13:06;3.90;99.90
11639;DHT22;5875;35.940;126.892;2023-02-08T16:15:52;3.90;99.90
11639;DHT22;5875;35.940;126.892;2023-02-08T16:18:43;3.90;99.90
11639;DHT22;5875;35.940;126.892;2023-02-08T16:21:36;3.90;99.90
11639;DHT22;5875;35.940;126.892;2023-02-08T16:26:45;3.80;99.90
11639;DHT22;5875;35.940;126.892;2023-02-08T16:29:24;3.90;99.90
11639;DHT22;5875;35.940;126.892;2023-02-08T16:34:43;3.80;99.90
11639;DHT22;5875;35.940;126.892;2023-02-08T16:40:39;3.80;99.90
11639;DHT22;5875;35.940;126.892;2023-02-08T16:43:28;3.70;99.90
11639;DHT22;5875;35.940;126.892;2023-02-08T16:46:16;3.80;99.10
11639;DHT22;5875;35.940;126.892;2023-02-08T16:53:55;3.40;58.70
11639;DHT22;5875;35.940;126.892;2023-02-08T16:56:23;3.40;65.80
11639;DHT22;5875;35.940;126.892;2023-02-08T16:58:50;3.40;90.50
11639;DHT22;5875;35.940;126.892;2023-02-08T17:01:20;3.40;95.20
11639;DHT22;5875;35.940;126.892;2023-02-08T17:03:49;3.40;98.90
11639;DHT22;5875;35.940;126.892;2023-02-08T17:08:48;3.40;99.90
11639;DHT22;5875;35.940;126.892;2023-02-08T17:11:15;3.40;99.90
11639;DHT22;5875;35.940;126.892;2023-02-08T17:13:42;3.50;91.40
11639;DHT22;5875;35.940;126.892;2023-02-08T17:16:17;3.50;96.30
11639;DHT22;5875;35.940;126.892;2023-02-08T17:18:46;3.40;98.50
11639;DHT22;5875;35.940;126.892;2023-02-08T17:21:13;3.40;99.90
11639;DHT22;5875;35.940;126.892;2023-02-08T17:23:41;3.40;99.40
11639;DHT22;5875;35.940;126.892;2023-02-08T17:26:28;3.40;99.90
11639;DHT22;5875;35.940;126.892;2023-02-08T17:28:57;3.40;82.60
11639;DHT22;5875;35.940;126.892;2023-02-08T17:31:26;3.20;55.50
11639;DHT22;5875;35.940;126.892;2023-02-08T17:33:55;2.90;54.50
11639;DHT22;5875;35.940;126.892;2023-02-08T17:36:31;3.00;78.10
11639;DHT22;5875;35.940;126.892;2023-02-08T17:38:59;3.10;77.40
11639;DHT22;5875;35.940;126.892;2023-02-08T17:41:26;3.10;71.00
11639;DHT22;5875;35.940;126.892;2023-02-08T17:43:55;3.00;77.10
11639;DHT22;5875;35.940;126.892;2023-02-08T17:46:24;3.00;91.40
11639;DHT22;5875;35.940;126.892;2023-02-08T17:48:52;3.10;95.90
11639;DHT22;5875;35.940;126.892;2023-02-08T17:51:22;3.00;99.90
11639;DHT22;5875;35.940;126.892;2023-02-08T17:53:50;3.00;99.90
11639;DHT22;5875;35.940;126.892;2023-02-08T17:56:22;2.90;99.90
11639;DHT22;5875;35.940;126.892;2023-02-08T17:58:50;2.90;99.90
11639;DHT22;5875;35.940;126.892;2023-02-08T18:01:21;2.90;99.90
11639;DHT22;5875;35.940;126.892;2023-02-08T18:03:49;2.90;99.90
11639;DHT22;5875;35.940;126.892;2023-02-08T18:06:17;2.90;99.90
11639;DHT22;5875;35.940;126.892;2023-02-08T18:08:45;2.80;99.90
11639;DHT22;5875;35.940;126.892;2023-02-08T18:11:15;2.90;99.90
11639;DHT22;5875;35.940;126.892;2023-02-08T18:13:48;2.90;99.90
11639;DHT22;5875;35.940;126.892;2023-02-08T18:16:22;2.90;99.90
11639;DHT22;5875;35.940;126.892;2023-02-08T18:18:50;2.90;99.90
11639;DHT22;5875;35.940;126.892;2023-02-08T18:21:20;2.90;99.90
11639;DHT22;5875;35.940;126.892;2023-02-08T18:23:48;2.90;99.90
11639;DHT22;5875;35.940;126.892;2023-02-08T18:26:21;2.90;99.90
11639;DHT22;5875;35.940;126.892;2023-02-08T18:28:50;2.90;99.90
11639;DHT22;5875;35.940;126.892;2023-02-08T18:31:18;2.90;99.90
11639;DHT22;5875;35.940;126.892;2023-02-08T18:33:47;2.90;99.90
11639;DHT22;5875;35.940;126.892;2023-02-08T18:36:15;2.90;99.90
11639;DHT22;5875;35.940;126.892;2023-02-08T18:38:44;2.90;99.90
11639;DHT22;5875;35.940;126.892;2023-02-08T18:41:16;2.80;99.90
11639;DHT22;5875;35.940;126.892;2023-02-08T18:43:44;2.80;99.90
11639;DHT22;5875;35.940;126.892;2023-02-08T18:46:13;2.80;99.90
11639;DHT22;5875;35.940;126.892;2023-02-08T18:48:41;2.80;99.90
11639;DHT22;5875;35.940;126.892;2023-02-08T18:51:12;2.90;99.90
11639;DHT22;5875;35.940;126.892;2023-02-08T18:53:41;2.80;99.90
11639;DHT22;5875;35.940;126.892;2023-02-08T18:56:10;2.80;99.90